RA43 UIII-UIII
Flight info
| Callsign | RA43 |
|---|---|
| Flight time | 0h 19m |
| Altitude | 10000 |
| Route | DCT |
| Aircraft | L39/M-SG/C |
Departure
| Time | 2026-05-09 09:48 |
|---|---|
| Airport | Irkutsk International Airport (UIII) |
Arrival
| Time | 2026-05-09 10:08 |
|---|---|
| Airport | Irkutsk International Airport (UIII) |
| Time | Latitude | Longitude | Altitude | Speed | Heading |
|---|---|---|---|---|---|
| 2026-05-09 09:22 | 52.27204 | 104.35396 | 1648 ft | 0 kts | 88° |
| 2026-05-09 09:41 | 52.27204 | 104.35408 | 1648 ft | 9 kts | 87° |
| 2026-05-09 09:41 | 52.27145 | 104.35478 | 1648 ft | 3 kts | 106° |
| 2026-05-09 09:42 | 52.27143 | 104.35504 | 1648 ft | 1 kts | 92° |
| 2026-05-09 09:42 | 52.27146 | 104.35556 | 1648 ft | 8 kts | 84° |
| 2026-05-09 09:42 | 52.27151 | 104.35730 | 1648 ft | 20 kts | 86° |
| 2026-05-09 09:42 | 52.27177 | 104.35921 | 1648 ft | 12 kts | 88° |
| 2026-05-09 09:43 | 52.27181 | 104.36080 | 1648 ft | 16 kts | 87° |
| 2026-05-09 09:43 | 52.27179 | 104.36288 | 1648 ft | 21 kts | 108° |
| 2026-05-09 09:43 | 52.27134 | 104.36496 | 1648 ft | 21 kts | 111° |
| 2026-05-09 09:43 | 52.27078 | 104.36740 | 1648 ft | 25 kts | 108° |
| 2026-05-09 09:44 | 52.27024 | 104.36976 | 1648 ft | 21 kts | 111° |
| 2026-05-09 09:44 | 52.26987 | 104.37163 | 1648 ft | 12 kts | 84° |
| 2026-05-09 09:44 | 52.26998 | 104.37288 | 1648 ft | 11 kts | 105° |
| 2026-05-09 09:44 | 52.26961 | 104.37430 | 1648 ft | 20 kts | 112° |
| 2026-05-09 09:45 | 52.26893 | 104.37687 | 1648 ft | 29 kts | 112° |
| 2026-05-09 09:45 | 52.26797 | 104.38049 | 1648 ft | 36 kts | 114° |
| 2026-05-09 09:45 | 52.26700 | 104.38423 | 1648 ft | 35 kts | 108° |
| 2026-05-09 09:45 | 52.26610 | 104.38756 | 1648 ft | 24 kts | 116° |
| 2026-05-09 09:46 | 52.26543 | 104.39002 | 1648 ft | 22 kts | 113° |
| 2026-05-09 09:46 | 52.26512 | 104.39117 | 1648 ft | 9 kts | 110° |
| 2026-05-09 09:46 | 52.26545 | 104.39182 | 1648 ft | 9 kts | 21° |
| 2026-05-09 09:46 | 52.26604 | 104.39223 | 1648 ft | 10 kts | 22° |
| 2026-05-09 09:47 | 52.26619 | 104.39234 | 1648 ft | 0 kts | 24° |
| 2026-05-09 09:47 | 52.26620 | 104.39234 | 1648 ft | 2 kts | 24° |
| 2026-05-09 09:47 | 52.26676 | 104.39275 | 1648 ft | 17 kts | 24° |
| 2026-05-09 09:47 | 52.26764 | 104.39274 | 1648 ft | 18 kts | 293° |
| 2026-05-09 09:48 | 52.26929 | 104.38660 | 1647 ft | 102 kts | 294° |
| 2026-05-09 09:48 | 52.27293 | 104.37315 | 1824 ft | 145 kts | 295° |
| 2026-05-09 09:48 | 52.27746 | 104.35767 | 2389 ft | 160 kts | 297° |
| 2026-05-09 09:48 | 52.28274 | 104.33963 | 2907 ft | 194 kts | 296° |
| 2026-05-09 09:49 | 52.28935 | 104.31841 | 3572 ft | 223 kts | 303° |
| 2026-05-09 09:49 | 52.30056 | 104.30014 | 4331 ft | 236 kts | 330° |
| 2026-05-09 09:49 | 52.31663 | 104.29705 | 5076 ft | 250 kts | 18° |
| 2026-05-09 09:49 | 52.33299 | 104.30893 | 5792 ft | 265 kts | 23° |
| 2026-05-09 09:50 | 52.35020 | 104.32255 | 6334 ft | 284 kts | 24° |
| 2026-05-09 09:50 | 52.36722 | 104.33682 | 6907 ft | 271 kts | 30° |
| 2026-05-09 09:50 | 52.37731 | 104.36074 | 7438 ft | 260 kts | 83° |
| 2026-05-09 09:50 | 52.37340 | 104.38916 | 7919 ft | 254 kts | 106° |
| 2026-05-09 09:51 | 52.36807 | 104.41737 | 8167 ft | 267 kts | 105° |
| 2026-05-09 09:51 | 52.36265 | 104.44657 | 8561 ft | 270 kts | 105° |
| 2026-05-09 09:51 | 52.35708 | 104.47676 | 8645 ft | 288 kts | 105° |
| 2026-05-09 09:51 | 52.34981 | 104.50766 | 8928 ft | 290 kts | 111° |
| 2026-05-09 09:52 | 52.34184 | 104.53828 | 9221 ft | 297 kts | 112° |
| 2026-05-09 09:52 | 52.33358 | 104.56944 | 9381 ft | 300 kts | 112° |
| 2026-05-09 09:52 | 52.32533 | 104.60040 | 9545 ft | 302 kts | 112° |
| 2026-05-09 09:52 | 52.31674 | 104.63174 | 9747 ft | 303 kts | 114° |
| 2026-05-09 09:53 | 52.30496 | 104.66081 | 9628 ft | 314 kts | 134° |
| 2026-05-09 09:53 | 52.28637 | 104.68011 | 9146 ft | 328 kts | 160° |
| 2026-05-09 09:53 | 52.26497 | 104.68537 | 8586 ft | 286 kts | 188° |
| 2026-05-09 09:53 | 52.24644 | 104.67817 | 7505 ft | 271 kts | 201° |
| 2026-05-09 09:54 | 52.22971 | 104.66752 | 7064 ft | 241 kts | 207° |
| 2026-05-09 09:54 | 52.21772 | 104.65165 | 6493 ft | 220 kts | 242° |
| 2026-05-09 09:54 | 52.21304 | 104.62900 | 5956 ft | 202 kts | 270° |
| 2026-05-09 09:54 | 52.21526 | 104.60733 | 5390 ft | 193 kts | 284° |
| 2026-05-09 09:55 | 52.21896 | 104.58583 | 5169 ft | 200 kts | 291° |
| 2026-05-09 09:55 | 52.22362 | 104.56395 | 4964 ft | 206 kts | 290° |
| 2026-05-09 09:55 | 52.22837 | 104.54234 | 4682 ft | 195 kts | 292° |
| 2026-05-09 09:55 | 52.23351 | 104.52222 | 4158 ft | 184 kts | 295° |
| 2026-05-09 09:56 | 52.23820 | 104.50410 | 3824 ft | 172 kts | 294° |
| 2026-05-09 09:56 | 52.24271 | 104.48691 | 3480 ft | 146 kts | 294° |
| 2026-05-09 09:56 | 52.24612 | 104.47362 | 3232 ft | 116 kts | 294° |
| 2026-05-09 09:56 | 52.24949 | 104.46126 | 2834 ft | 117 kts | 294° |
| 2026-05-09 09:57 | 52.25275 | 104.44919 | 2510 ft | 113 kts | 296° |
| 2026-05-09 09:57 | 52.25579 | 104.43760 | 2279 ft | 111 kts | 295° |
| 2026-05-09 09:57 | 52.25895 | 104.42553 | 1989 ft | 120 kts | 294° |
| 2026-05-09 09:57 | 52.26212 | 104.41343 | 1692 ft | 112 kts | 294° |
| 2026-05-09 09:58 | 52.26509 | 104.40255 | 1650 ft | 105 kts | 293° |
| 2026-05-09 09:58 | 52.26864 | 104.38902 | 1651 ft | 157 kts | 294° |
| 2026-05-09 09:58 | 52.27324 | 104.37222 | 2116 ft | 167 kts | 295° |
| 2026-05-09 09:58 | 52.27856 | 104.35373 | 2948 ft | 179 kts | 297° |
| 2026-05-09 09:59 | 52.28413 | 104.33502 | 4125 ft | 190 kts | 298° |
| 2026-05-09 09:59 | 52.29078 | 104.31512 | 5088 ft | 210 kts | 301° |
| 2026-05-09 09:59 | 52.29847 | 104.29427 | 6161 ft | 219 kts | 308° |
| 2026-05-09 09:59 | 52.31057 | 104.27954 | 7258 ft | 224 kts | 341° |
| 2026-05-09 10:00 | 52.32640 | 104.28131 | 8134 ft | 243 kts | 21° |
| 2026-05-09 10:00 | 52.34199 | 104.29484 | 8927 ft | 265 kts | 25° |
| 2026-05-09 10:00 | 52.35899 | 104.31036 | 9435 ft | 298 kts | 26° |
| 2026-05-09 10:00 | 52.37714 | 104.32972 | 9956 ft | 324 kts | 39° |
| 2026-05-09 10:01 | 52.38973 | 104.36143 | 10560 ft | 348 kts | 66° |
| 2026-05-09 10:01 | 52.39227 | 104.40007 | 10195 ft | 334 kts | 99° |
| 2026-05-09 10:01 | 52.38502 | 104.43356 | 10141 ft | 288 kts | 112° |
| 2026-05-09 10:01 | 52.37733 | 104.46196 | 10076 ft | 260 kts | 114° |
| 2026-05-09 10:02 | 52.36981 | 104.48892 | 9923 ft | 258 kts | 114° |
| 2026-05-09 10:02 | 52.36230 | 104.51479 | 9879 ft | 254 kts | 115° |
| 2026-05-09 10:02 | 52.35457 | 104.54077 | 9712 ft | 254 kts | 116° |
| 2026-05-09 10:02 | 52.34648 | 104.56601 | 9684 ft | 247 kts | 117° |
| 2026-05-09 10:03 | 52.33827 | 104.59035 | 9685 ft | 238 kts | 116° |
| 2026-05-09 10:03 | 52.33062 | 104.61397 | 9668 ft | 234 kts | 118° |
| 2026-05-09 10:03 | 52.32201 | 104.63692 | 9315 ft | 237 kts | 127° |
| 2026-05-09 10:03 | 52.30939 | 104.65390 | 8442 ft | 237 kts | 166° |
| 2026-05-09 10:04 | 52.29385 | 104.64983 | 7582 ft | 232 kts | 206° |
| 2026-05-09 10:04 | 52.27958 | 104.63914 | 7126 ft | 221 kts | 208° |
| 2026-05-09 10:04 | 52.26615 | 104.62833 | 6692 ft | 211 kts | 210° |
| 2026-05-09 10:04 | 52.25353 | 104.61684 | 6419 ft | 215 kts | 214° |
| 2026-05-09 10:05 | 52.24057 | 104.60268 | 6349 ft | 231 kts | 220° |
| 2026-05-09 10:05 | 52.22932 | 104.58320 | 6186 ft | 247 kts | 236° |
| 2026-05-09 10:05 | 52.22253 | 104.55787 | 5712 ft | 248 kts | 261° |
| 2026-05-09 10:05 | 52.22656 | 104.53205 | 5133 ft | 237 kts | 299° |
| 2026-05-09 10:06 | 52.23417 | 104.51000 | 4396 ft | 215 kts | 301° |
| 2026-05-09 10:06 | 52.24123 | 104.48893 | 3562 ft | 209 kts | 297° |
| 2026-05-09 10:06 | 52.24704 | 104.46853 | 2941 ft | 185 kts | 295° |
| 2026-05-09 10:06 | 52.25190 | 104.45138 | 2556 ft | 152 kts | 294° |
| 2026-05-09 10:07 | 52.25571 | 104.43728 | 2177 ft | 114 kts | 294° |
| 2026-05-09 10:07 | 52.25842 | 104.42700 | 1948 ft | 96 kts | 295° |
| 2026-05-09 10:07 | 52.26120 | 104.41683 | 1754 ft | 100 kts | 296° |
| 2026-05-09 10:07 | 52.26375 | 104.40751 | 1650 ft | 70 kts | 294° |
| 2026-05-09 10:08 | 52.26506 | 104.40247 | 1650 ft | 36 kts | 291° |
| 2026-05-09 10:08 | 52.26595 | 104.39912 | 1647 ft | 29 kts | 294° |
| 2026-05-09 10:08 | 52.26667 | 104.39640 | 1647 ft | 23 kts | 289° |
| 2026-05-09 10:08 | 52.26721 | 104.39437 | 1647 ft | 12 kts | 291° |
| 2026-05-09 10:09 | 52.26733 | 104.39320 | 1648 ft | 10 kts | 230° |
| 2026-05-09 10:09 | 52.26679 | 104.39275 | 1648 ft | 8 kts | 203° |
| 2026-05-09 10:09 | 52.26631 | 104.39242 | 1648 ft | 7 kts | 202° |
| 2026-05-09 10:09 | 52.26584 | 104.39209 | 1648 ft | 11 kts | 203° |
| 2026-05-09 10:10 | 52.26522 | 104.39164 | 1648 ft | 8 kts | 214° |
| 2026-05-09 10:10 | 52.26520 | 104.39094 | 1648 ft | 11 kts | 294° |
| 2026-05-09 10:10 | 52.26560 | 104.38940 | 1648 ft | 19 kts | 294° |
| 2026-05-09 10:10 | 52.26622 | 104.38707 | 1648 ft | 24 kts | 293° |
| 2026-05-09 10:11 | 52.26681 | 104.38485 | 1648 ft | 16 kts | 294° |
| 2026-05-09 10:11 | 52.26723 | 104.38326 | 1648 ft | 14 kts | 293° |
| 2026-05-09 10:11 | 52.26760 | 104.38184 | 1648 ft | 13 kts | 294° |
| 2026-05-09 10:11 | 52.26795 | 104.38057 | 1648 ft | 12 kts | 294° |
| 2026-05-09 10:12 | 52.26813 | 104.37941 | 1648 ft | 10 kts | 249° |
| 2026-05-09 10:12 | 52.26776 | 104.37855 | 1648 ft | 9 kts | 233° |
| 2026-05-09 10:12 | 52.26741 | 104.37779 | 1648 ft | 8 kts | 230° |
| 2026-05-09 10:12 | 52.26699 | 104.37738 | 1648 ft | 6 kts | 203° |
| 2026-05-09 10:13 | 52.26698 | 104.37737 | 1648 ft | 0 kts | 203° |